sensor_id;sensor_type;location;lat;lon;timestamp;P1;durP1;ratioP1;P2;durP2;ratioP2
4202;SDS011;2115;51.038;7.006;2023-08-21T01:07:21;190.10;;;51.43;;
4202;SDS011;2115;51.038;7.006;2023-08-21T01:10:01;56.77;;;17.27;;
4202;SDS011;2115;51.038;7.006;2023-08-21T01:15:02;22.97;;;5.70;;
4202;SDS011;2115;51.038;7.006;2023-08-21T01:17:29;19.83;;;5.57;;
4202;SDS011;2115;51.038;7.006;2023-08-21T01:19:55;541.87;;;152.17;;
4202;SDS011;2115;51.038;7.006;2023-08-21T01:22:25;64.60;;;19.70;;
4202;SDS011;2115;51.038;7.006;2023-08-21T01:24:51;26.50;;;7.17;;
4202;SDS011;2115;51.038;7.006;2023-08-21T01:27:16;194.83;;;48.53;;
4202;SDS011;2115;51.038;7.006;2023-08-21T01:29:42;493.63;;;127.07;;
4202;SDS011;2115;51.038;7.006;2023-08-21T01:32:17;478.30;;;124.27;;
4202;SDS011;2115;51.038;7.006;2023-08-21T01:34:51;533.77;;;142.37;;
4202;SDS011;2115;51.038;7.006;2023-08-21T01:37:17;530.00;;;142.07;;
4202;SDS011;2115;51.038;7.006;2023-08-21T01:39:42;420.03;;;107.27;;
4202;SDS011;2115;51.038;7.006;2023-08-21T01:42:08;517.57;;;139.03;;
4202;SDS011;2115;51.038;7.006;2023-08-21T01:44:33;482.17;;;122.33;;
4202;SDS011;2115;51.038;7.006;2023-08-21T07:10:25;7.07;;;5.23;;
4202;SDS011;2115;51.038;7.006;2023-08-21T07:12:53;27.35;;;9.80;;
4202;SDS011;2115;51.038;7.006;2023-08-21T07:32:20;258.60;;;69.50;;
4202;SDS011;2115;51.038;7.006;2023-08-21T07:34:45;299.40;;;93.90;;
4202;SDS011;2115;51.038;7.006;2023-08-21T07:37:11;285.65;;;85.10;;
4202;SDS011;2115;51.038;7.006;2023-08-21T07:39:36;341.95;;;96.70;;
4202;SDS011;2115;51.038;7.006;2023-08-21T07:42:01;568.50;;;170.10;;
4202;SDS011;2115;51.038;7.006;2023-08-21T07:51:43;464.45;;;127.00;;
4202;SDS011;2115;51.038;7.006;2023-08-21T07:54:08;552.05;;;161.60;;
4202;SDS011;2115;51.038;7.006;2023-08-21T07:56:33;561.60;;;171.80;;
4202;SDS011;2115;51.038;7.006;2023-08-21T07:59:00;185.87;;;51.57;;
4202;SDS011;2115;51.038;7.006;2023-08-21T08:01:27;202.83;;;59.53;;
4202;SDS011;2115;51.038;7.006;2023-08-21T08:03:52;547.50;;;167.70;;
4202;SDS011;2115;51.038;7.006;2023-08-21T08:06:17;560.10;;;173.80;;
4202;SDS011;2115;51.038;7.006;2023-08-21T08:08:43;507.53;;;142.00;;
4202;SDS011;2115;51.038;7.006;2023-08-21T08:11:09;554.13;;;167.07;;
4202;SDS011;2115;51.038;7.006;2023-08-21T08:13:34;537.90;;;154.37;;
4202;SDS011;2115;51.038;7.006;2023-08-21T08:16:00;13.40;;;5.40;;
4202;SDS011;2115;51.038;7.006;2023-08-21T08:18:26;565.37;;;172.87;;
4202;SDS011;2115;51.038;7.006;2023-08-21T08:20:51;534.23;;;157.93;;
4202;SDS011;2115;51.038;7.006;2023-08-21T08:23:18;21.70;;;6.23;;
4202;SDS011;2115;51.038;7.006;2023-08-21T08:25:44;19.37;;;6.70;;
4202;SDS011;2115;51.038;7.006;2023-08-21T08:28:10;237.65;;;70.85;;
4202;SDS011;2115;51.038;7.006;2023-08-21T08:30:35;26.80;;;8.50;;
4202;SDS011;2115;51.038;7.006;2023-08-21T08:33:00;224.65;;;58.60;;
4202;SDS011;2115;51.038;7.006;2023-08-21T08:35:26;557.13;;;166.67;;
4202;SDS011;2115;51.038;7.006;2023-08-21T08:37:51;400.13;;;118.07;;
4202;SDS011;2115;51.038;7.006;2023-08-21T08:40:17;235.45;;;70.50;;
4202;SDS011;2115;51.038;7.006;2023-08-21T08:42:42;556.60;;;170.20;;
4202;SDS011;2115;51.038;7.006;2023-08-21T08:45:08;530.80;;;158.70;;
4202;SDS011;2115;51.038;7.006;2023-08-21T08:47:34;193.57;;;54.40;;
4202;SDS011;2115;51.038;7.006;2023-08-21T08:50:03;8.30;;;4.00;;
4202;SDS011;2115;51.038;7.006;2023-08-21T08:52:34;544.53;;;159.43;;
4202;SDS011;2115;51.038;7.006;2023-08-21T08:55:00;560.70;;;173.20;;
4202;SDS011;2115;51.038;7.006;2023-08-21T08:57:27;203.80;;;57.57;;
4202;SDS011;2115;51.038;7.006;2023-08-21T08:59:53;557.83;;;161.77;;
4202;SDS011;2115;51.038;7.006;2023-08-21T09:02:18;545.33;;;152.70;;
4202;SDS011;2115;51.038;7.006;2023-08-21T09:04:43;207.77;;;58.60;;
4202;SDS011;2115;51.038;7.006;2023-08-21T09:07:09;569.87;;;175.00;;
4202;SDS011;2115;51.038;7.006;2023-08-21T09:09:39;206.10;;;58.23;;
4202;SDS011;2115;51.038;7.006;2023-08-21T09:12:12;205.20;;;58.27;;
4202;SDS011;2115;51.038;7.006;2023-08-21T09:14:39;476.13;;;139.63;;
4202;SDS011;2115;51.038;7.006;2023-08-21T09:17:05;201.67;;;58.67;;
4202;SDS011;2115;51.038;7.006;2023-08-21T09:19:31;190.20;;;54.53;;
4202;SDS011;2115;51.038;7.006;2023-08-21T09:21:56;540.40;;;166.60;;
4202;SDS011;2115;51.038;7.006;2023-08-21T09:24:22;199.43;;;52.53;;
4202;SDS011;2115;51.038;7.006;2023-08-21T09:26:48;558.50;;;176.97;;
4202;SDS011;2115;51.038;7.006;2023-08-21T09:29:14;572.10;;;180.87;;
4202;SDS011;2115;51.038;7.006;2023-08-21T09:31:40;583.43;;;184.80;;
4202;SDS011;2115;51.038;7.006;2023-08-21T09:34:05;577.27;;;184.63;;
4202;SDS011;2115;51.038;7.006;2023-08-21T09:36:31;215.47;;;67.53;;
4202;SDS011;2115;51.038;7.006;2023-08-21T09:38:57;29.70;;;14.70;;
4202;SDS011;2115;51.038;7.006;2023-08-21T09:41:23;72.20;;;27.90;;
4202;SDS011;2115;51.038;7.006;2023-08-21T09:43:49;519.17;;;157.83;;
4202;SDS011;2115;51.038;7.006;2023-08-21T09:46:24;581.77;;;189.17;;
4202;SDS011;2115;51.038;7.006;2023-08-21T09:48:54;20.97;;;9.93;;
4202;SDS011;2115;51.038;7.006;2023-08-21T09:51:20;22.13;;;13.03;;
4202;SDS011;2115;51.038;7.006;2023-08-21T09:53:48;197.60;;;58.20;;
4202;SDS011;2115;51.038;7.006;2023-08-21T09:56:14;585.17;;;191.93;;
4202;SDS011;2115;51.038;7.006;2023-08-21T09:58:39;579.73;;;185.80;;
4202;SDS011;2115;51.038;7.006;2023-08-21T10:01:05;204.30;;;60.07;;
4202;SDS011;2115;51.038;7.006;2023-08-21T10:03:39;577.50;;;188.03;;
4202;SDS011;2115;51.038;7.006;2023-08-21T10:06:08;204.80;;;67.40;;
4202;SDS011;2115;51.038;7.006;2023-08-21T10:08:38;572.50;;;186.50;;
4202;SDS011;2115;51.038;7.006;2023-08-21T10:11:07;195.10;;;60.80;;
4202;SDS011;2115;51.038;7.006;2023-08-21T10:13:34;202.47;;;63.17;;
4202;SDS011;2115;51.038;7.006;2023-08-21T10:16:01;571.80;;;194.90;;
4202;SDS011;2115;51.038;7.006;2023-08-21T10:18:31;221.90;;;73.23;;
4202;SDS011;2115;51.038;7.006;2023-08-21T10:21:11;568.83;;;197.37;;
4202;SDS011;2115;51.038;7.006;2023-08-21T10:23:38;553.73;;;190.80;;
4202;SDS011;2115;51.038;7.006;2023-08-21T10:26:07;211.23;;;73.20;;
4202;SDS011;2115;51.038;7.006;2023-08-21T10:28:50;24.23;;;11.87;;
4202;SDS011;2115;51.038;7.006;2023-08-21T10:34:04;569.87;;;196.07;;
4202;SDS011;2115;51.038;7.006;2023-08-21T10:36:37;203.43;;;65.70;;
4202;SDS011;2115;51.038;7.006;2023-08-21T10:41:54;20.10;;;10.00;;
4202;SDS011;2115;51.038;7.006;2023-08-21T10:44:33;199.53;;;68.97;;
4202;SDS011;2115;51.038;7.006;2023-08-21T10:47:12;472.53;;;158.77;;
4202;SDS011;2115;51.038;7.006;2023-08-21T10:49:38;202.90;;;68.33;;
4202;SDS011;2115;51.038;7.006;2023-08-21T10:52:03;197.50;;;67.80;;
4202;SDS011;2115;51.038;7.006;2023-08-21T10:54:41;195.10;;;67.53;;
4202;SDS011;2115;51.038;7.006;2023-08-21T10:57:07;197.50;;;65.67;;
4202;SDS011;2115;51.038;7.006;2023-08-21T10:59:33;564.60;;;206.37;;
4202;SDS011;2115;51.038;7.006;2023-08-21T11:01:58;243.50;;;91.90;;
4202;SDS011;2115;51.038;7.006;2023-08-21T11:04:24;547.00;;;211.50;;
4202;SDS011;2115;51.038;7.006;2023-08-21T11:06:51;584.77;;;227.60;;
4202;SDS011;2115;51.038;7.006;2023-08-21T11:09:17;189.20;;;63.80;;
4202;SDS011;2115;51.038;7.006;2023-08-21T11:11:43;583.57;;;229.47;;
4202;SDS011;2115;51.038;7.006;2023-08-21T11:14:08;587.93;;;233.60;;
4202;SDS011;2115;51.038;7.006;2023-08-21T11:16:34;495.80;;;186.07;;
4202;SDS011;2115;51.038;7.006;2023-08-21T11:19:02;468.43;;;182.50;;
4202;SDS011;2115;51.038;7.006;2023-08-21T11:21:28;564.57;;;225.90;;
4202;SDS011;2115;51.038;7.006;2023-08-21T11:23:54;481.43;;;185.93;;
4202;SDS011;2115;51.038;7.006;2023-08-21T11:26:20;181.43;;;66.77;;
4202;SDS011;2115;51.038;7.006;2023-08-21T11:28:46;480.40;;;190.20;;
4202;SDS011;2115;51.038;7.006;2023-08-21T11:31:11;484.53;;;189.27;;
4202;SDS011;2115;51.038;7.006;2023-08-21T11:33:37;489.07;;;196.00;;
4202;SDS011;2115;51.038;7.006;2023-08-21T11:36:04;574.07;;;247.33;;
4202;SDS011;2115;51.038;7.006;2023-08-21T11:38:29;481.20;;;193.20;;
4202;SDS011;2115;51.038;7.006;2023-08-21T11:40:58;514.37;;;206.40;;
4202;SDS011;2115;51.038;7.006;2023-08-21T11:43:35;493.60;;;205.03;;
4202;SDS011;2115;51.038;7.006;2023-08-21T11:46:05;578.37;;;259.73;;
4202;SDS011;2115;51.038;7.006;2023-08-21T11:48:31;566.87;;;244.87;;
4202;SDS011;2115;51.038;7.006;2023-08-21T11:50:57;590.13;;;274.90;;
4202;SDS011;2115;51.038;7.006;2023-08-21T11:53:30;586.13;;;263.37;;
4202;SDS011;2115;51.038;7.006;2023-08-21T11:56:03;586.30;;;273.83;;
4202;SDS011;2115;51.038;7.006;2023-08-21T11:58:37;584.07;;;275.57;;
4202;SDS011;2115;51.038;7.006;2023-08-21T12:01:04;578.70;;;274.50;;
4202;SDS011;2115;51.038;7.006;2023-08-21T12:03:30;502.07;;;209.20;;
4202;SDS011;2115;51.038;7.006;2023-08-21T12:05:56;487.07;;;202.57;;
4202;SDS011;2115;51.038;7.006;2023-08-21T12:08:21;562.30;;;256.77;;
4202;SDS011;2115;51.038;7.006;2023-08-21T12:10:50;583.40;;;278.27;;
4202;SDS011;2115;51.038;7.006;2023-08-21T12:13:19;572.00;;;266.33;;
4202;SDS011;2115;51.038;7.006;2023-08-21T12:15:44;576.27;;;280.57;;
4202;SDS011;2115;51.038;7.006;2023-08-21T12:18:10;573.63;;;281.40;;
4202;SDS011;2115;51.038;7.006;2023-08-21T12:20:35;485.47;;;211.47;;
4202;SDS011;2115;51.038;7.006;2023-08-21T12:23:00;484.27;;;207.83;;
4202;SDS011;2115;51.038;7.006;2023-08-21T12:25:26;563.13;;;275.53;;
4202;SDS011;2115;51.038;7.006;2023-08-21T12:27:51;575.30;;;302.20;;
4202;SDS011;2115;51.038;7.006;2023-08-21T12:30:17;562.20;;;282.57;;
4202;SDS011;2115;51.038;7.006;2023-08-21T12:32:42;579.20;;;327.97;;
4202;SDS011;2115;51.038;7.006;2023-08-21T12:35:08;578.57;;;316.07;;
4202;SDS011;2115;51.038;7.006;2023-08-21T12:37:36;557.40;;;283.37;;
4202;SDS011;2115;51.038;7.006;2023-08-21T12:40:02;573.43;;;321.57;;
4202;SDS011;2115;51.038;7.006;2023-08-21T12:42:28;574.47;;;325.07;;
4202;SDS011;2115;51.038;7.006;2023-08-21T12:44:53;585.87;;;344.87;;
4202;SDS011;2115;51.038;7.006;2023-08-21T12:47:19;530.20;;;293.07;;
4202;SDS011;2115;51.038;7.006;2023-08-21T12:49:44;594.03;;;384.50;;
4202;SDS011;2115;51.038;7.006;2023-08-21T12:52:09;583.30;;;370.73;;
4202;SDS011;2115;51.038;7.006;2023-08-21T12:54:37;577.10;;;367.33;;
4202;SDS011;2115;51.038;7.006;2023-08-21T12:57:03;583.83;;;391.83;;
4202;SDS011;2115;51.038;7.006;2023-08-21T12:59:29;589.03;;;401.43;;
4202;SDS011;2115;51.038;7.006;2023-08-21T13:01:55;584.90;;;378.03;;
4202;SDS011;2115;51.038;7.006;2023-08-21T13:04:25;594.73;;;399.20;;
4202;SDS011;2115;51.038;7.006;2023-08-21T13:06:50;601.67;;;422.50;;
4202;SDS011;2115;51.038;7.006;2023-08-21T13:09:15;608.30;;;435.80;;
4202;SDS011;2115;51.038;7.006;2023-08-21T13:11:41;592.87;;;421.87;;
4202;SDS011;2115;51.038;7.006;2023-08-21T13:14:06;574.07;;;374.50;;
4202;SDS011;2115;51.038;7.006;2023-08-21T13:16:32;579.63;;;376.27;;
4202;SDS011;2115;51.038;7.006;2023-08-21T13:18:57;584.23;;;388.80;;
4202;SDS011;2115;51.038;7.006;2023-08-21T13:21:22;591.60;;;422.63;;
4202;SDS011;2115;51.038;7.006;2023-08-21T13:23:48;600.10;;;417.27;;
4202;SDS011;2115;51.038;7.006;2023-08-21T13:26:13;595.10;;;434.63;;
4202;SDS011;2115;51.038;7.006;2023-08-21T13:28:39;569.10;;;358.40;;
4202;SDS011;2115;51.038;7.006;2023-08-21T13:31:04;565.23;;;351.30;;
4202;SDS011;2115;51.038;7.006;2023-08-21T13:33:32;581.60;;;409.27;;
4202;SDS011;2115;51.038;7.006;2023-08-21T13:35:58;586.30;;;417.93;;
4202;SDS011;2115;51.038;7.006;2023-08-21T13:38:23;584.33;;;429.03;;
4202;SDS011;2115;51.038;7.006;2023-08-21T13:40:49;583.13;;;400.50;;
4202;SDS011;2115;51.038;7.006;2023-08-21T13:43:14;573.23;;;416.10;;
4202;SDS011;2115;51.038;7.006;2023-08-21T13:45:40;581.40;;;412.03;;
4202;SDS011;2115;51.038;7.006;2023-08-21T13:48:05;590.50;;;445.37;;
4202;SDS011;2115;51.038;7.006;2023-08-21T13:50:31;606.60;;;462.30;;
4202;SDS011;2115;51.038;7.006;2023-08-21T13:52:56;603.97;;;462.63;;
4202;SDS011;2115;51.038;7.006;2023-08-21T13:55:22;594.30;;;440.03;;
4202;SDS011;2115;51.038;7.006;2023-08-21T13:57:48;588.27;;;431.63;;
4202;SDS011;2115;51.038;7.006;2023-08-21T14:00:13;585.33;;;413.43;;
4202;SDS011;2115;51.038;7.006;2023-08-21T14:02:42;588.20;;;423.37;;
4202;SDS011;2115;51.038;7.006;2023-08-21T14:05:07;593.27;;;442.13;;
4202;SDS011;2115;51.038;7.006;2023-08-21T14:07:33;596.07;;;447.33;;
4202;SDS011;2115;51.038;7.006;2023-08-21T14:09:59;594.77;;;431.80;;
4202;SDS011;2115;51.038;7.006;2023-08-21T14:12:25;592.53;;;435.13;;
4202;SDS011;2115;51.038;7.006;2023-08-21T14:14:50;583.50;;;425.77;;
4202;SDS011;2115;51.038;7.006;2023-08-21T14:17:16;581.60;;;405.97;;
4202;SDS011;2115;51.038;7.006;2023-08-21T14:19:41;579.33;;;412.30;;
4202;SDS011;2115;51.038;7.006;2023-08-21T14:22:07;575.87;;;411.87;;
4202;SDS011;2115;51.038;7.006;2023-08-21T14:24:32;586.73;;;444.03;;
4202;SDS011;2115;51.038;7.006;2023-08-21T14:26:58;592.77;;;450.93;;
4202;SDS011;2115;51.038;7.006;2023-08-21T14:29:23;589.40;;;420.33;;
4202;SDS011;2115;51.038;7.006;2023-08-21T14:31:49;592.77;;;435.77;;
4202;SDS011;2115;51.038;7.006;2023-08-21T14:34:14;591.23;;;430.30;;
4202;SDS011;2115;51.038;7.006;2023-08-21T14:36:41;582.83;;;417.03;;
4202;SDS011;2115;51.038;7.006;2023-08-21T14:39:07;585.80;;;432.57;;
4202;SDS011;2115;51.038;7.006;2023-08-21T14:41:35;582.37;;;424.30;;
4202;SDS011;2115;51.038;7.006;2023-08-21T14:44:01;598.13;;;459.07;;
4202;SDS011;2115;51.038;7.006;2023-08-21T14:46:27;580.17;;;412.77;;
4202;SDS011;2115;51.038;7.006;2023-08-21T14:48:53;589.83;;;445.77;;
4202;SDS011;2115;51.038;7.006;2023-08-21T14:51:19;597.80;;;452.00;;
4202;SDS011;2115;51.038;7.006;2023-08-21T14:53:44;600.27;;;457.17;;
4202;SDS011;2115;51.038;7.006;2023-08-21T14:56:09;591.13;;;448.73;;
4202;SDS011;2115;51.038;7.006;2023-08-21T14:58:35;592.20;;;429.80;;
4202;SDS011;2115;51.038;7.006;2023-08-21T15:01:00;612.57;;;460.70;;
4202;SDS011;2115;51.038;7.006;2023-08-21T15:03:26;622.00;;;463.97;;
4202;SDS011;2115;51.038;7.006;2023-08-21T15:05:51;627.43;;;478.07;;
4202;SDS011;2115;51.038;7.006;2023-08-21T15:08:17;606.67;;;452.87;;
4202;SDS011;2115;51.038;7.006;2023-08-21T15:10:42;623.93;;;479.37;;
4202;SDS011;2115;51.038;7.006;2023-08-21T15:13:08;609.33;;;453.67;;
4202;SDS011;2115;51.038;7.006;2023-08-21T15:15:33;611.43;;;460.17;;
4202;SDS011;2115;51.038;7.006;2023-08-21T15:17:58;605.77;;;456.10;;
4202;SDS011;2115;51.038;7.006;2023-08-21T15:20:24;603.37;;;447.53;;
4202;SDS011;2115;51.038;7.006;2023-08-21T15:22:49;602.77;;;437.13;;
4202;SDS011;2115;51.038;7.006;2023-08-21T15:25:16;608.37;;;448.97;;
4202;SDS011;2115;51.038;7.006;2023-08-21T15:27:43;605.30;;;446.33;;
4202;SDS011;2115;51.038;7.006;2023-08-21T15:30:08;608.70;;;453.20;;
4202;SDS011;2115;51.038;7.006;2023-08-21T15:32:34;614.97;;;442.77;;
4202;SDS011;2115;51.038;7.006;2023-08-21T15:34:59;613.20;;;460.70;;
4202;SDS011;2115;51.038;7.006;2023-08-21T15:37:26;607.83;;;438.67;;
4202;SDS011;2115;51.038;7.006;2023-08-21T15:39:52;609.90;;;453.07;;
4202;SDS011;2115;51.038;7.006;2023-08-21T15:42:17;607.83;;;447.10;;
4202;SDS011;2115;51.038;7.006;2023-08-21T15:44:42;619.37;;;465.67;;
4202;SDS011;2115;51.038;7.006;2023-08-21T15:47:08;613.87;;;456.17;;
4202;SDS011;2115;51.038;7.006;2023-08-21T15:49:33;635.67;;;483.60;;
4202;SDS011;2115;51.038;7.006;2023-08-21T15:51:59;616.43;;;466.03;;
4202;SDS011;2115;51.038;7.006;2023-08-21T15:54:29;607.17;;;429.37;;
4202;SDS011;2115;51.038;7.006;2023-08-21T15:56:57;618.77;;;465.70;;
4202;SDS011;2115;51.038;7.006;2023-08-21T15:59:23;626.63;;;469.37;;
4202;SDS011;2115;51.038;7.006;2023-08-21T16:01:48;644.87;;;513.43;;
4202;SDS011;2115;51.038;7.006;2023-08-21T16:04:13;632.17;;;483.93;;
4202;SDS011;2115;51.038;7.006;2023-08-21T16:06:39;621.53;;;470.23;;
4202;SDS011;2115;51.038;7.006;2023-08-21T16:09:04;619.43;;;460.37;;
4202;SDS011;2115;51.038;7.006;2023-08-21T16:11:29;623.23;;;462.30;;
4202;SDS011;2115;51.038;7.006;2023-08-21T16:13:55;620.93;;;462.50;;
4202;SDS011;2115;51.038;7.006;2023-08-21T16:16:22;623.27;;;461.47;;
4202;SDS011;2115;51.038;7.006;2023-08-21T16:18:49;634.37;;;472.47;;
4202;SDS011;2115;51.038;7.006;2023-08-21T16:21:14;611.70;;;414.13;;
4202;SDS011;2115;51.038;7.006;2023-08-21T16:23:39;628.23;;;457.10;;
4202;SDS011;2115;51.038;7.006;2023-08-21T16:26:05;624.27;;;458.47;;
4202;SDS011;2115;51.038;7.006;2023-08-21T16:28:30;635.87;;;473.27;;
4202;SDS011;2115;51.038;7.006;2023-08-21T16:30:55;634.47;;;458.30;;
4202;SDS011;2115;51.038;7.006;2023-08-21T16:33:21;638.53;;;473.57;;
4202;SDS011;2115;51.038;7.006;2023-08-21T16:35:46;640.77;;;458.20;;
4202;SDS011;2115;51.038;7.006;2023-08-21T16:38:12;643.77;;;460.93;;
4202;SDS011;2115;51.038;7.006;2023-08-21T16:40:37;637.53;;;445.60;;
4202;SDS011;2115;51.038;7.006;2023-08-21T16:43:03;653.17;;;459.23;;
4202;SDS011;2115;51.038;7.006;2023-08-21T16:45:28;648.13;;;401.87;;
4202;SDS011;2115;51.038;7.006;2023-08-21T16:47:53;595.00;;;365.33;;
4202;SDS011;2115;51.038;7.006;2023-08-21T16:50:19;675.33;;;419.17;;
4202;SDS011;2115;51.038;7.006;2023-08-21T16:52:44;681.10;;;432.60;;
4202;SDS011;2115;51.038;7.006;2023-08-21T16:55:10;610.07;;;348.30;;
4202;SDS011;2115;51.038;7.006;2023-08-21T16:57:35;679.07;;;403.73;;
4202;SDS011;2115;51.038;7.006;2023-08-21T17:00:01;602.63;;;322.77;;
4202;SDS011;2115;51.038;7.006;2023-08-21T17:02:27;675.53;;;370.53;;
4202;SDS011;2115;51.038;7.006;2023-08-21T17:04:53;568.37;;;291.60;;
4202;SDS011;2115;51.038;7.006;2023-08-21T17:07:18;227.07;;;103.63;;
4202;SDS011;2115;51.038;7.006;2023-08-21T17:09:44;16.40;;;13.47;;
4202;SDS011;2115;51.038;7.006;2023-08-21T17:12:11;597.53;;;296.90;;
4202;SDS011;2115;51.038;7.006;2023-08-21T17:14:37;233.53;;;104.83;;
4202;SDS011;2115;51.038;7.006;2023-08-21T17:17:02;674.20;;;364.10;;
4202;SDS011;2115;51.038;7.006;2023-08-21T17:19:28;25.10;;;22.90;;
4202;SDS011;2115;51.038;7.006;2023-08-21T17:21:54;583.07;;;299.67;;
4202;SDS011;2115;51.038;7.006;2023-08-21T17:24:19;229.47;;;106.90;;
4202;SDS011;2115;51.038;7.006;2023-08-21T17:26:44;680.03;;;373.67;;
4202;SDS011;2115;51.038;7.006;2023-08-21T17:29:10;676.57;;;363.13;;
4202;SDS011;2115;51.038;7.006;2023-08-21T17:31:35;232.83;;;114.90;;
4202;SDS011;2115;51.038;7.006;2023-08-21T17:34:01;573.37;;;276.50;;
4202;SDS011;2115;51.038;7.006;2023-08-21T17:36:26;670.63;;;344.33;;
4202;SDS011;2115;51.038;7.006;2023-08-21T17:38:51;692.30;;;390.53;;
4202;SDS011;2115;51.038;7.006;2023-08-21T17:41:17;572.50;;;275.33;;
4202;SDS011;2115;51.038;7.006;2023-08-21T17:43:42;230.93;;;99.33;;
4202;SDS011;2115;51.038;7.006;2023-08-21T17:46:08;217.63;;;93.63;;
4202;SDS011;2115;51.038;7.006;2023-08-21T17:48:34;237.77;;;102.90;;
4202;SDS011;2115;51.038;7.006;2023-08-21T17:50:59;232.13;;;104.13;;
4202;SDS011;2115;51.038;7.006;2023-08-21T17:53:24;663.00;;;326.17;;
4202;SDS011;2115;51.038;7.006;2023-08-21T17:55:50;664.10;;;346.83;;
4202;SDS011;2115;51.038;7.006;2023-08-21T17:58:15;657.37;;;330.43;;
4202;SDS011;2115;51.038;7.006;2023-08-21T18:00:41;583.83;;;285.43;;
4202;SDS011;2115;51.038;7.006;2023-08-21T18:03:06;12.60;;;11.10;;
4202;SDS011;2115;51.038;7.006;2023-08-21T18:05:32;230.77;;;102.43;;
4202;SDS011;2115;51.038;7.006;2023-08-21T18:07:58;674.27;;;350.97;;
4202;SDS011;2115;51.038;7.006;2023-08-21T18:10:23;673.57;;;348.73;;
4202;SDS011;2115;51.038;7.006;2023-08-21T18:12:48;580.90;;;273.47;;
4202;SDS011;2115;51.038;7.006;2023-08-21T18:15:15;233.10;;;98.07;;
4202;SDS011;2115;51.038;7.006;2023-08-21T18:17:40;666.40;;;329.27;;
4202;SDS011;2115;51.038;7.006;2023-08-21T18:20:07;662.23;;;327.97;;
4202;SDS011;2115;51.038;7.006;2023-08-21T18:22:32;653.77;;;313.90;;
4202;SDS011;2115;51.038;7.006;2023-08-21T18:24:58;582.70;;;276.57;;
4202;SDS011;2115;51.038;7.006;2023-08-21T18:27:23;672.33;;;340.07;;
4202;SDS011;2115;51.038;7.006;2023-08-21T18:29:49;665.00;;;334.17;;
4202;SDS011;2115;51.038;7.006;2023-08-21T18:32:14;683.03;;;357.03;;
4202;SDS011;2115;51.038;7.006;2023-08-21T18:34:40;21.67;;;19.87;;
4202;SDS011;2115;51.038;7.006;2023-08-21T18:37:07;21.17;;;19.37;;
4202;SDS011;2115;51.038;7.006;2023-08-21T18:39:33;22.07;;;20.30;;
4202;SDS011;2115;51.038;7.006;2023-08-21T18:41:58;21.63;;;19.83;;
4202;SDS011;2115;51.038;7.006;2023-08-21T18:44:24;243.73;;;109.87;;
4202;SDS011;2115;51.038;7.006;2023-08-21T18:46:52;487.90;;;221.50;;
4202;SDS011;2115;51.038;7.006;2023-08-21T18:49:18;230.93;;;95.87;;
4202;SDS011;2115;51.038;7.006;2023-08-21T18:51:43;32.07;;;28.90;;
4202;SDS011;2115;51.038;7.006;2023-08-21T18:54:09;239.23;;;107.53;;
4202;SDS011;2115;51.038;7.006;2023-08-21T18:56:34;46.50;;;24.10;;
4202;SDS011;2115;51.038;7.006;2023-08-21T18:59:00;236.67;;;99.27;;
4202;SDS011;2115;51.038;7.006;2023-08-21T19:01:26;32.97;;;23.67;;
4202;SDS011;2115;51.038;7.006;2023-08-21T19:03:52;279.80;;;100.07;;
4202;SDS011;2115;51.038;7.006;2023-08-21T19:06:18;616.33;;;219.43;;
4202;SDS011;2115;51.038;7.006;2023-08-21T19:08:43;632.77;;;250.93;;
4202;SDS011;2115;51.038;7.006;2023-08-21T19:11:09;246.77;;;89.40;;
4202;SDS011;2115;51.038;7.006;2023-08-21T19:13:36;232.73;;;79.30;;
4202;SDS011;2115;51.038;7.006;2023-08-21T19:16:02;230.13;;;78.67;;
4202;SDS011;2115;51.038;7.006;2023-08-21T19:18:28;626.53;;;225.97;;
4202;SDS011;2115;51.038;7.006;2023-08-21T19:20:57;39.40;;;20.07;;
4202;SDS011;2115;51.038;7.006;2023-08-21T19:23:23;231.20;;;77.43;;
4202;SDS011;2115;51.038;7.006;2023-08-21T19:25:48;440.73;;;154.73;;
4202;SDS011;2115;51.038;7.006;2023-08-21T19:28:14;630.77;;;231.53;;
4202;SDS011;2115;51.038;7.006;2023-08-21T19:30:41;25.73;;;19.33;;
4202;SDS011;2115;51.038;7.006;2023-08-21T19:33:06;245.20;;;88.57;;
4202;SDS011;2115;51.038;7.006;2023-08-21T19:35:34;635.83;;;230.87;;
4202;SDS011;2115;51.038;7.006;2023-08-21T19:38:00;637.43;;;239.43;;
4202;SDS011;2115;51.038;7.006;2023-08-21T19:40:25;631.77;;;231.03;;
4202;SDS011;2115;51.038;7.006;2023-08-21T19:42:51;629.27;;;226.43;;
4202;SDS011;2115;51.038;7.006;2023-08-21T19:45:16;628.23;;;224.77;;
4202;SDS011;2115;51.038;7.006;2023-08-21T19:47:45;31.43;;;18.30;;
4202;SDS011;2115;51.038;7.006;2023-08-21T19:50:11;639.13;;;245.13;;
4202;SDS011;2115;51.038;7.006;2023-08-21T19:52:36;43.30;;;27.17;;
4202;SDS011;2115;51.038;7.006;2023-08-21T19:55:01;551.30;;;196.80;;
4202;SDS011;2115;51.038;7.006;2023-08-21T19:57:27;599.57;;;200.43;;
4202;SDS011;2115;51.038;7.006;2023-08-21T19:59:52;599.60;;;198.77;;
4202;SDS011;2115;51.038;7.006;2023-08-21T20:02:18;609.83;;;206.43;;
4202;SDS011;2115;51.038;7.006;2023-08-21T20:04:43;26.20;;;14.97;;
4202;SDS011;2115;51.038;7.006;2023-08-21T20:07:09;32.57;;;16.83;;
4202;SDS011;2115;51.038;7.006;2023-08-21T20:09:35;209.67;;;68.43;;
4202;SDS011;2115;51.038;7.006;2023-08-21T20:12:01;229.17;;;79.87;;
4202;SDS011;2115;51.038;7.006;2023-08-21T20:14:26;589.73;;;204.57;;
4202;SDS011;2115;51.038;7.006;2023-08-21T20:16:52;619.20;;;211.60;;
4202;SDS011;2115;51.038;7.006;2023-08-21T20:19:17;250.90;;;86.90;;
4202;SDS011;2115;51.038;7.006;2023-08-21T20:21:44;593.10;;;194.73;;
4202;SDS011;2115;51.038;7.006;2023-08-21T20:24:09;588.63;;;188.47;;
4202;SDS011;2115;51.038;7.006;2023-08-21T20:26:34;613.53;;;200.77;;
4202;SDS011;2115;51.038;7.006;2023-08-21T20:29:00;210.50;;;71.00;;
4202;SDS011;2115;51.038;7.006;2023-08-21T20:31:25;74.20;;;30.47;;
4202;SDS011;2115;51.038;7.006;2023-08-21T20:33:51;518.57;;;157.63;;
4202;SDS011;2115;51.038;7.006;2023-08-21T20:36:17;570.57;;;180.57;;
4202;SDS011;2115;51.038;7.006;2023-08-21T20:38:42;569.10;;;188.40;;
4202;SDS011;2115;51.038;7.006;2023-08-21T20:41:08;566.43;;;181.10;;
4202;SDS011;2115;51.038;7.006;2023-08-21T20:43:33;575.23;;;189.90;;
4202;SDS011;2115;51.038;7.006;2023-08-21T20:46:05;33.13;;;20.63;;
4202;SDS011;2115;51.038;7.006;2023-08-21T20:48:31;222.87;;;69.23;;
4202;SDS011;2115;51.038;7.006;2023-08-21T20:50:57;228.97;;;75.63;;
4202;SDS011;2115;51.038;7.006;2023-08-21T20:53:24;46.73;;;28.60;;
4202;SDS011;2115;51.038;7.006;2023-08-21T20:55:50;28.17;;;11.53;;
4202;SDS011;2115;51.038;7.006;2023-08-21T20:58:16;205.73;;;58.90;;
4202;SDS011;2115;51.038;7.006;2023-08-21T21:00:43;561.10;;;161.70;;
4202;SDS011;2115;51.038;7.006;2023-08-21T21:03:08;571.43;;;175.80;;
4202;SDS011;2115;51.038;7.006;2023-08-21T21:05:34;541.33;;;159.70;;
4202;SDS011;2115;51.038;7.006;2023-08-21T21:08:01;560.57;;;167.57;;
4202;SDS011;2115;51.038;7.006;2023-08-21T21:10:27;540.23;;;161.43;;
4202;SDS011;2115;51.038;7.006;2023-08-21T21:12:52;546.33;;;159.83;;
4202;SDS011;2115;51.038;7.006;2023-08-21T21:15:17;214.63;;;63.77;;
4202;SDS011;2115;51.038;7.006;2023-08-21T21:17:43;556.43;;;167.33;;
4202;SDS011;2115;51.038;7.006;2023-08-21T21:20:08;545.50;;;161.10;;
4202;SDS011;2115;51.038;7.006;2023-08-21T21:22:34;581.30;;;184.27;;